Foxy 3 — WDH4123 — position and weather

sailwx.info

Track history (hours):
 
Tides and Currents Weather Stations Pressure Air Temp Water Temp Dewpoint Dewpoint Depression Visibility Wind Speed Wind Dir Waves Ship Positions

Foxy 3

Owner: Fox Marine Corporation, Easton, PA. More information available from US FCC via Universal Licensing System and Coast Guard Vessel Documentation Center.

Last reported at 2017-Oct-20 17:43 UTC. Time now 2017-Oct-22 06:26 UTC.
Position N 40°38' W 074°07'.

MMSI: 367614410.

Date/timePositionNaut miles runAvg speedWind from/ knotsBaromVisibWave heightAir tempDewpointWater temp
2017-Oct-20 17:43N 40°38' W 074°07'1 4.5
2017-Oct-20 17:30N 40°39' W 074°06'3 7.0
2017-Oct-20 17:00N 40°40' W 074°02'1 2.9
2017-Oct-20 16:30N 40°41' W 074°01'3 6.7
2017-Oct-20 16:00N 40°44' W 073°58'4 6.8
2017-Oct-20 15:29N 40°47' W 073°56'2 4.5
2017-Oct-20 15:00N 40°48' W 073°54'2 4.1
2017-Oct-20 14:29N 40°48' W 073°51'4 0.1
2017-Oct-19 05:16N 40°50' W 073°46'1 4.3
2017-Oct-19 04:58N 40°49' W 073°47'2 2.9
2017-Oct-19 04:14N 40°48' W 073°49'1 3.1
2017-Oct-19 03:54N 40°48' W 073°51'1 3.4
2017-Oct-19 03:29N 40°48' W 073°53'2 3.5
2017-Oct-19 02:59N 40°48' W 073°55'2 3.3
2017-Oct-19 02:29N 40°46' W 073°56'2 4.7
2017-Oct-19 02:00N 40°45' W 073°58'3 5.2
2017-Oct-19 01:30N 40°42' W 073°60'3 5.5
2017-Oct-19 01:00N 40°41' W 074°02'2 4.2
2017-Oct-19 00:30N 40°39' W 074°05'3 5.9
2017-Oct-19 00:00N 40°39' W 074°08'2 4.8
2017-Oct-18 23:30N 40°41' W 074°08'2 4.8
2017-Oct-18 23:00N 40°43' W 074°07'1 1.4
2017-Oct-18 22:30N 40°44' W 074°07'4 7.2
2017-Oct-18 22:00N 40°40' W 074°08'2 4.5
2017-Oct-18 21:30N 40°38' W 074°09'0 0.0
2017-Oct-18 20:20N 40°38' W 074°09'0 0.0
2017-Oct-18 20:00N 40°38' W 074°09'2 0.5
2017-Oct-18 16:32N 40°39' W 074°11'0 7.8
2017-Oct-18 16:30N 40°39' W 074°11'0 0.2
2017-Oct-18 16:00N 40°39' W 074°12'2 3.3
2017-Oct-18 15:29N 40°38' W 074°09'2 0.9
2017-Oct-18 13:46N 40°38' W 074°07'1 5.2
2017-Oct-18 13:30N 40°39' W 074°06'3 6.4
2017-Oct-18 13:00N 40°41' W 074°02'3 6.2
2017-Oct-18 12:30N 40°42' W 073°59'0 0.3
2017-Oct-18 12:00N 40°42' W 073°59'0 0.0
2017-Oct-18 11:30N 40°42' W 073°59'0 0.0
2017-Oct-18 11:00N 40°42' W 073°59'2 4.1
2017-Oct-18 10:30N 40°41' W 074°01'4 7.1
2017-Oct-18 10:01N 40°39' W 074°05'3 5.5
2017-Oct-18 09:30N 40°39' W 074°08'2 4.9
2017-Oct-18 09:00N 40°39' W 074°12'3 0.7
2017-Oct-18 04:31N 40°38' W 074°07'0 0.2
2017-Oct-18 04:29N 40°38' W 074°07'3 5.9
2017-Oct-18 04:00N 40°38' W 074°04'3 6.5
2017-Oct-18 03:30N 40°35' W 074°02'13 3.5
2017-Oct-17 23:50N 40°35' W 073°45'2 5.8
2017-Oct-17 23:29N 40°35' W 073°47'3 6.9
2017-Oct-17 22:59N 40°33' W 073°52'4 7.2
2017-Oct-17 22:30N 40°32' W 073°56'2 4.9
2017-Oct-17 22:00N 40°34' W 073°59'3 6.0
2017-Oct-17 21:30N 40°36' W 074°02'3 5.9
2017-Oct-17 21:00N 40°38' W 074°02'2 4.0
2017-Oct-17 20:30N 40°40' W 074°01'0 0.0
2017-Oct-16 21:20N 40°40' W 074°00'1 1.7
2017-Oct-16 21:00N 40°40' W 073°60'0 0.2
2017-Oct-16 20:30N 40°41' W 073°60'0 0.5
2017-Oct-16 20:00N 40°40' W 073°60'0 0.7
2017-Oct-16 19:30N 40°40' W 074°00'2 4.5
2017-Oct-16 19:00N 40°40' W 074°03'1 2.1
2017-Oct-16 18:30N 40°40' W 074°04'0 0.0
2017-Oct-16 18:00N 40°40' W 074°04'0 0.5
2017-Oct-16 17:30N 40°40' W 074°04'1 1.6
2017-Oct-16 17:00N 40°40' W 074°05'2 4.1
2017-Oct-16 16:30N 40°39' W 074°07'0 0.0
2017-Oct-16 15:59N 40°39' W 074°07'0 0.2
2017-Oct-16 15:30N 40°39' W 074°07'3 6.9
2017-Oct-16 15:00N 40°38' W 074°12'4 0.1
2017-Oct-15 05:21N 40°35' W 074°13'3 7.8
2017-Oct-15 05:00N 40°37' W 074°12'4 7.1
2017-Oct-15 04:30N 40°39' W 074°08'4 8.5
2017-Oct-15 04:00N 40°40' W 074°03'1 2.2
2017-Oct-15 03:30N 40°40' W 074°01'1 2.2
2017-Oct-15 03:00N 40°41' W 074°02'1 0.5
2017-Oct-15 02:00N 40°41' W 074°02'1 2.5
2017-Oct-15 01:30N 40°40' W 074°01'0 0.0
2017-Oct-15 01:00N 40°40' W 074°01'0 0.0
2017-Oct-15 00:30N 40°40' W 074°01'0 0.0
2017-Oct-15 00:00N 40°40' W 074°01'0 0.0
2017-Oct-14 23:30N 40°40' W 074°01'0 0.0
2017-Oct-14 23:00N 40°40' W 074°01'3 6.7
2017-Oct-14 22:30N 40°39' W 074°05'4 8.6
2017-Oct-14 22:00N 40°39' W 074°11'8 7.3
2017-Oct-14 20:54N 40°31' W 074°15'  
2017-Oct-11 18:08N 40°36' W 074°12'1 7.5
2017-Oct-11 18:00N 40°37' W 074°12'3 5.3
2017-Oct-11 17:30N 40°38' W 074°09'4 7.9
2017-Oct-11 17:00N 40°40' W 074°04'8 0.5
2017-Oct-10 23:58N 40°33' W 073°58'3 6.4
2017-Oct-10 23:30N 40°35' W 074°01'5 9.5
2017-Oct-10 23:00N 40°39' W 074°04'4 8.5
2017-Oct-10 22:29N 40°39' W 074°10'1 2.8
2017-Oct-10 22:00N 40°39' W 074°11'2 3.1
2017-Oct-10 21:27N 40°39' W 074°09'3 5.4
2017-Oct-10 21:00N 40°39' W 074°06'3 5.7
2017-Oct-10 20:30N 40°40' W 074°03'4 7.7
2017-Oct-10 20:00N 40°44' W 074°01'  
Track history (hours):
 
Tides and Currents Weather Stations Pressure Air Temp Water Temp Dewpoint Dewpoint Depression Visibility Wind Speed Wind Dir Waves Ship Positions

Foxy 3

Owner: Fox Marine Corporation, Easton, PA. More information available from US FCC via Universal Licensing System and Coast Guard Vessel Documentation Center.

Last reported at 2017-Oct-20 17:43 UTC. Time now 2017-Oct-22 06:26 UTC.
Position N 40°38' W 074°07'.

MMSI: 367614410.

Date/timePositionNaut miles runAvg speedWind from/ knotsBaromVisibWave heightAir tempDewpointWater temp
2017-Oct-20 17:43N 40°38' W 074°07'1 4.5
2017-Oct-20 17:30N 40°39' W 074°06'3 7.0
2017-Oct-20 17:00N 40°40' W 074°02'1 2.9
2017-Oct-20 16:30N 40°41' W 074°01'3 6.7
2017-Oct-20 16:00N 40°44' W 073°58'4 6.8
2017-Oct-20 15:29N 40°47' W 073°56'2 4.5
2017-Oct-20 15:00N 40°48' W 073°54'2 4.1
2017-Oct-20 14:29N 40°48' W 073°51'4 0.1
2017-Oct-19 05:16N 40°50' W 073°46'1 4.3
2017-Oct-19 04:58N 40°49' W 073°47'2 2.9
2017-Oct-19 04:14N 40°48' W 073°49'1 3.1
2017-Oct-19 03:54N 40°48' W 073°51'1 3.4
2017-Oct-19 03:29N 40°48' W 073°53'2 3.5
2017-Oct-19 02:59N 40°48' W 073°55'2 3.3
2017-Oct-19 02:29N 40°46' W 073°56'2 4.7
2017-Oct-19 02:00N 40°45' W 073°58'3 5.2
2017-Oct-19 01:30N 40°42' W 073°60'3 5.5
2017-Oct-19 01:00N 40°41' W 074°02'2 4.2
2017-Oct-19 00:30N 40°39' W 074°05'3 5.9
2017-Oct-19 00:00N 40°39' W 074°08'2 4.8
2017-Oct-18 23:30N 40°41' W 074°08'2 4.8
2017-Oct-18 23:00N 40°43' W 074°07'1 1.4
2017-Oct-18 22:30N 40°44' W 074°07'4 7.2
2017-Oct-18 22:00N 40°40' W 074°08'2 4.5
2017-Oct-18 21:30N 40°38' W 074°09'0 0.0
2017-Oct-18 20:20N 40°38' W 074°09'0 0.0
2017-Oct-18 20:00N 40°38' W 074°09'2 0.5
2017-Oct-18 16:32N 40°39' W 074°11'0 7.8
2017-Oct-18 16:30N 40°39' W 074°11'0 0.2
2017-Oct-18 16:00N 40°39' W 074°12'2 3.3
2017-Oct-18 15:29N 40°38' W 074°09'2 0.9
2017-Oct-18 13:46N 40°38' W 074°07'1 5.2
2017-Oct-18 13:30N 40°39' W 074°06'3 6.4
2017-Oct-18 13:00N 40°41' W 074°02'3 6.2
2017-Oct-18 12:30N 40°42' W 073°59'0 0.3
2017-Oct-18 12:00N 40°42' W 073°59'0 0.0
2017-Oct-18 11:30N 40°42' W 073°59'0 0.0
2017-Oct-18 11:00N 40°42' W 073°59'2 4.1
2017-Oct-18 10:30N 40°41' W 074°01'4 7.1
2017-Oct-18 10:01N 40°39' W 074°05'3 5.5
2017-Oct-18 09:30N 40°39' W 074°08'2 4.9
2017-Oct-18 09:00N 40°39' W 074°12'3 0.7
2017-Oct-18 04:31N 40°38' W 074°07'0 0.2
2017-Oct-18 04:29N 40°38' W 074°07'3 5.9
2017-Oct-18 04:00N 40°38' W 074°04'3 6.5
2017-Oct-18 03:30N 40°35' W 074°02'13 3.5
2017-Oct-17 23:50N 40°35' W 073°45'2 5.8
2017-Oct-17 23:29N 40°35' W 073°47'3 6.9
2017-Oct-17 22:59N 40°33' W 073°52'4 7.2
2017-Oct-17 22:30N 40°32' W 073°56'2 4.9
2017-Oct-17 22:00N 40°34' W 073°59'3 6.0
2017-Oct-17 21:30N 40°36' W 074°02'3 5.9
2017-Oct-17 21:00N 40°38' W 074°02'2 4.0
2017-Oct-17 20:30N 40°40' W 074°01'0 0.0
2017-Oct-16 21:20N 40°40' W 074°00'1 1.7
2017-Oct-16 21:00N 40°40' W 073°60'0 0.2
2017-Oct-16 20:30N 40°41' W 073°60'0 0.5
2017-Oct-16 20:00N 40°40' W 073°60'0 0.7
2017-Oct-16 19:30N 40°40' W 074°00'2 4.5
2017-Oct-16 19:00N 40°40' W 074°03'1 2.1
2017-Oct-16 18:30N 40°40' W 074°04'0 0.0
2017-Oct-16 18:00N 40°40' W 074°04'0 0.5
2017-Oct-16 17:30N 40°40' W 074°04'1 1.6
2017-Oct-16 17:00N 40°40' W 074°05'2 4.1
2017-Oct-16 16:30N 40°39' W 074°07'0 0.0
2017-Oct-16 15:59N 40°39' W 074°07'0 0.2
2017-Oct-16 15:30N 40°39' W 074°07'3 6.9
2017-Oct-16 15:00N 40°38' W 074°12'4 0.1
2017-Oct-15 05:21N 40°35' W 074°13'3 7.8
2017-Oct-15 05:00N 40°37' W 074°12'4 7.1
2017-Oct-15 04:30N 40°39' W 074°08'4 8.5
2017-Oct-15 04:00N 40°40' W 074°03'1 2.2
2017-Oct-15 03:30N 40°40' W 074°01'1 2.2
2017-Oct-15 03:00N 40°41' W 074°02'1 0.5
2017-Oct-15 02:00N 40°41' W 074°02'1 2.5
2017-Oct-15 01:30N 40°40' W 074°01'0 0.0
2017-Oct-15 01:00N 40°40' W 074°01'0 0.0
2017-Oct-15 00:30N 40°40' W 074°01'0 0.0
2017-Oct-15 00:00N 40°40' W 074°01'0 0.0
2017-Oct-14 23:30N 40°40' W 074°01'0 0.0
2017-Oct-14 23:00N 40°40' W 074°01'3 6.7
2017-Oct-14 22:30N 40°39' W 074°05'4 8.6
2017-Oct-14 22:00N 40°39' W 074°11'8 7.3
2017-Oct-14 20:54N 40°31' W 074°15'  
2017-Oct-11 18:08N 40°36' W 074°12'1 7.5
2017-Oct-11 18:00N 40°37' W 074°12'3 5.3
2017-Oct-11 17:30N 40°38' W 074°09'4 7.9
2017-Oct-11 17:00N 40°40' W 074°04'8 0.5
2017-Oct-10 23:58N 40°33' W 073°58'3 6.4
2017-Oct-10 23:30N 40°35' W 074°01'5 9.5
2017-Oct-10 23:00N 40°39' W 074°04'4 8.5
2017-Oct-10 22:29N 40°39' W 074°10'1 2.8
2017-Oct-10 22:00N 40°39' W 074°11'2 3.1
2017-Oct-10 21:27N 40°39' W 074°09'3 5.4
2017-Oct-10 21:00N 40°39' W 074°06'3 5.7
2017-Oct-10 20:30N 40°40' W 074°03'4 7.7
2017-Oct-10 20:00N 40°44' W 074°01'  

Dump ship's entire track history